sensor_id;sensor_type;location;lat;lon;timestamp;P1;durP1;ratioP1;P2;durP2;ratioP2
8466;SDS011;4270;48.148;11.648;2023-02-18T00:02:04;6.20;;;2.40;;
8466;SDS011;4270;48.148;11.648;2023-02-18T00:04:29;3.10;;;1.97;;
8466;SDS011;4270;48.148;11.648;2023-02-18T00:06:54;3.80;;;2.50;;
8466;SDS011;4270;48.148;11.648;2023-02-18T00:09:20;3.60;;;1.90;;
8466;SDS011;4270;48.148;11.648;2023-02-18T00:11:45;3.10;;;2.10;;
8466;SDS011;4270;48.148;11.648;2023-02-18T00:14:11;4.57;;;2.60;;
8466;SDS011;4270;48.148;11.648;2023-02-18T00:16:37;4.87;;;2.73;;
8466;SDS011;4270;48.148;11.648;2023-02-18T00:19:03;3.23;;;2.17;;
8466;SDS011;4270;48.148;11.648;2023-02-18T00:21:29;3.07;;;2.20;;
8466;SDS011;4270;48.148;11.648;2023-02-18T00:23:54;3.07;;;2.10;;
8466;SDS011;4270;48.148;11.648;2023-02-18T00:26:20;4.30;;;2.30;;
8466;SDS011;4270;48.148;11.648;2023-02-18T00:28:46;3.23;;;2.30;;
8466;SDS011;4270;48.148;11.648;2023-02-18T00:31:17;6.17;;;2.37;;
8466;SDS011;4270;48.148;11.648;2023-02-18T00:33:42;2.40;;;1.93;;
8466;SDS011;4270;48.148;11.648;2023-02-18T00:36:09;2.80;;;2.07;;
8466;SDS011;4270;48.148;11.648;2023-02-18T00:38:35;3.40;;;2.13;;
8466;SDS011;4270;48.148;11.648;2023-02-18T00:41:01;3.73;;;2.20;;
8466;SDS011;4270;48.148;11.648;2023-02-18T00:43:26;3.93;;;2.30;;
8466;SDS011;4270;48.148;11.648;2023-02-18T00:45:51;3.87;;;2.33;;
8466;SDS011;4270;48.148;11.648;2023-02-18T00:48:17;4.33;;;2.00;;
8466;SDS011;4270;48.148;11.648;2023-02-18T00:50:43;1.87;;;1.67;;
8466;SDS011;4270;48.148;11.648;2023-02-18T00:53:08;2.13;;;1.60;;
8466;SDS011;4270;48.148;11.648;2023-02-18T00:55:37;3.10;;;1.87;;
8466;SDS011;4270;48.148;11.648;2023-02-18T00:58:03;2.70;;;2.07;;
8466;SDS011;4270;48.148;11.648;2023-02-18T01:00:28;1.93;;;1.77;;
8466;SDS011;4270;48.148;11.648;2023-02-18T01:02:53;3.03;;;2.10;;
8466;SDS011;4270;48.148;11.648;2023-02-18T01:05:19;3.13;;;1.80;;
8466;SDS011;4270;48.148;11.648;2023-02-18T01:07:45;2.77;;;1.83;;
8466;SDS011;4270;48.148;11.648;2023-02-18T01:10:10;6.13;;;1.90;;
8466;SDS011;4270;48.148;11.648;2023-02-18T01:12:35;2.33;;;1.80;;
8466;SDS011;4270;48.148;11.648;2023-02-18T01:15:01;3.33;;;1.80;;
8466;SDS011;4270;48.148;11.648;2023-02-18T01:17:26;2.57;;;1.67;;
8466;SDS011;4270;48.148;11.648;2023-02-18T01:19:51;3.23;;;1.90;;
8466;SDS011;4270;48.148;11.648;2023-02-18T01:22:16;2.30;;;1.90;;
8466;SDS011;4270;48.148;11.648;2023-02-18T01:24:42;2.20;;;1.50;;
8466;SDS011;4270;48.148;11.648;2023-02-18T01:27:07;2.97;;;2.20;;
8466;SDS011;4270;48.148;11.648;2023-02-18T01:29:32;1.97;;;1.60;;
8466;SDS011;4270;48.148;11.648;2023-02-18T01:31:57;3.07;;;2.27;;
8466;SDS011;4270;48.148;11.648;2023-02-18T01:34:22;3.70;;;2.00;;
8466;SDS011;4270;48.148;11.648;2023-02-18T01:36:48;2.60;;;2.10;;
8466;SDS011;4270;48.148;11.648;2023-02-18T01:39:13;2.00;;;1.40;;
8466;SDS011;4270;48.148;11.648;2023-02-18T01:41:38;2.33;;;2.00;;
8466;SDS011;4270;48.148;11.648;2023-02-18T01:46:35;4.93;;;1.97;;
8466;SDS011;4270;48.148;11.648;2023-02-18T01:49:00;2.37;;;2.17;;
8466;SDS011;4270;48.148;11.648;2023-02-18T01:51:26;2.63;;;2.40;;
8466;SDS011;4270;48.148;11.648;2023-02-18T01:53:54;5.17;;;2.37;;
8466;SDS011;4270;48.148;11.648;2023-02-18T01:56:25;3.40;;;2.47;;
8466;SDS011;4270;48.148;11.648;2023-02-18T01:58:52;4.30;;;2.93;;
8466;SDS011;4270;48.148;11.648;2023-02-18T02:01:18;3.17;;;2.57;;
8466;SDS011;4270;48.148;11.648;2023-02-18T02:03:43;3.73;;;2.40;;
8466;SDS011;4270;48.148;11.648;2023-02-18T02:06:11;2.60;;;1.97;;
8466;SDS011;4270;48.148;11.648;2023-02-18T02:08:39;5.10;;;2.73;;
8466;SDS011;4270;48.148;11.648;2023-02-18T02:32:00;4.40;;;2.50;;
8466;SDS011;4270;48.148;11.648;2023-02-18T02:37:15;4.67;;;2.67;;
8466;SDS011;4270;48.148;11.648;2023-02-18T02:39:46;3.27;;;2.63;;
8466;SDS011;4270;48.148;11.648;2023-02-18T02:48:12;3.57;;;2.00;;
8466;SDS011;4270;48.148;11.648;2023-02-18T02:52:30;2.10;;;1.60;;
8466;SDS011;4270;48.148;11.648;2023-02-18T02:54:56;2.30;;;1.70;;
8466;SDS011;4270;48.148;11.648;2023-02-18T02:59:48;2.63;;;1.70;;
8466;SDS011;4270;48.148;11.648;2023-02-18T03:05:19;4.00;;;2.33;;
8466;SDS011;4270;48.148;11.648;2023-02-18T03:21:03;2.13;;;1.70;;
8466;SDS011;4270;48.148;11.648;2023-02-18T03:26:21;2.20;;;1.67;;
8466;SDS011;4270;48.148;11.648;2023-02-18T03:28:47;2.40;;;1.40;;
8466;SDS011;4270;48.148;11.648;2023-02-18T03:31:15;1.50;;;1.40;;
8466;SDS011;4270;48.148;11.648;2023-02-18T03:33:44;1.87;;;1.30;;
8466;SDS011;4270;48.148;11.648;2023-02-18T03:36:10;2.23;;;1.40;;
8466;SDS011;4270;48.148;11.648;2023-02-18T03:41:04;2.40;;;1.40;;
8466;SDS011;4270;48.148;11.648;2023-02-18T03:43:30;2.03;;;1.30;;
8466;SDS011;4270;48.148;11.648;2023-02-18T03:45:55;2.00;;;1.50;;
8466;SDS011;4270;48.148;11.648;2023-02-18T03:48:20;1.63;;;1.30;;
8466;SDS011;4270;48.148;11.648;2023-02-18T03:50:45;2.80;;;1.53;;
8466;SDS011;4270;48.148;11.648;2023-02-18T03:53:11;1.87;;;1.23;;
8466;SDS011;4270;48.148;11.648;2023-02-18T03:55:36;2.10;;;1.23;;
8466;SDS011;4270;48.148;11.648;2023-02-18T03:58:01;2.00;;;1.43;;
8466;SDS011;4270;48.148;11.648;2023-02-18T04:00:26;1.43;;;1.33;;
8466;SDS011;4270;48.148;11.648;2023-02-18T04:02:52;2.00;;;1.53;;
8466;SDS011;4270;48.148;11.648;2023-02-18T04:05:17;1.50;;;1.40;;
8466;SDS011;4270;48.148;11.648;2023-02-18T04:07:42;1.10;;;0.80;;
8466;SDS011;4270;48.148;11.648;2023-02-18T04:10:07;1.37;;;1.20;;
8466;SDS011;4270;48.148;11.648;2023-02-18T04:12:33;1.20;;;1.10;;
8466;SDS011;4270;48.148;11.648;2023-02-18T04:14:58;1.20;;;1.10;;
8466;SDS011;4270;48.148;11.648;2023-02-18T04:17:23;1.27;;;1.10;;
8466;SDS011;4270;48.148;11.648;2023-02-18T04:19:49;1.43;;;1.33;;
8466;SDS011;4270;48.148;11.648;2023-02-18T04:22:14;2.93;;;1.57;;
8466;SDS011;4270;48.148;11.648;2023-02-18T04:24:39;1.40;;;1.20;;
8466;SDS011;4270;48.148;11.648;2023-02-18T04:27:04;1.23;;;1.07;;
8466;SDS011;4270;48.148;11.648;2023-02-18T04:29:30;3.50;;;1.30;;
8466;SDS011;4270;48.148;11.648;2023-02-18T04:31:55;2.27;;;1.50;;
8466;SDS011;4270;48.148;11.648;2023-02-18T04:34:20;2.90;;;1.77;;
8466;SDS011;4270;48.148;11.648;2023-02-18T04:36:45;1.40;;;1.20;;
8466;SDS011;4270;48.148;11.648;2023-02-18T04:39:11;1.33;;;1.23;;
8466;SDS011;4270;48.148;11.648;2023-02-18T04:41:36;2.10;;;1.70;;
8466;SDS011;4270;48.148;11.648;2023-02-18T04:44:01;4.90;;;1.80;;
8466;SDS011;4270;48.148;11.648;2023-02-18T04:46:27;2.70;;;1.80;;
8466;SDS011;4270;48.148;11.648;2023-02-18T04:48:52;1.80;;;1.60;;
8466;SDS011;4270;48.148;11.648;2023-02-18T04:51:17;1.60;;;1.50;;
8466;SDS011;4270;48.148;11.648;2023-02-18T04:53:42;2.20;;;1.50;;
8466;SDS011;4270;48.148;11.648;2023-02-18T04:56:08;1.60;;;1.47;;
8466;SDS011;4270;48.148;11.648;2023-02-18T04:58:33;2.93;;;1.40;;
8466;SDS011;4270;48.148;11.648;2023-02-18T05:00:59;1.90;;;1.40;;
8466;SDS011;4270;48.148;11.648;2023-02-18T05:03:24;2.00;;;1.50;;
8466;SDS011;4270;48.148;11.648;2023-02-18T05:05:50;1.90;;;1.70;;
8466;SDS011;4270;48.148;11.648;2023-02-18T05:08:15;2.43;;;1.70;;
8466;SDS011;4270;48.148;11.648;2023-02-18T05:10:40;1.40;;;1.30;;
8466;SDS011;4270;48.148;11.648;2023-02-18T05:13:05;1.77;;;1.40;;
8466;SDS011;4270;48.148;11.648;2023-02-18T05:15:30;1.30;;;1.20;;
8466;SDS011;4270;48.148;11.648;2023-02-18T05:17:56;1.67;;;1.57;;
8466;SDS011;4270;48.148;11.648;2023-02-18T05:20:21;1.40;;;1.30;;
8466;SDS011;4270;48.148;11.648;2023-02-18T05:22:46;2.80;;;1.67;;
8466;SDS011;4270;48.148;11.648;2023-02-18T05:25:11;1.43;;;1.10;;
8466;SDS011;4270;48.148;11.648;2023-02-18T05:27:37;2.03;;;1.30;;
8466;SDS011;4270;48.148;11.648;2023-02-18T05:30:02;1.83;;;1.50;;
8466;SDS011;4270;48.148;11.648;2023-02-18T05:32:27;1.30;;;1.00;;
8466;SDS011;4270;48.148;11.648;2023-02-18T05:34:52;1.90;;;1.50;;
8466;SDS011;4270;48.148;11.648;2023-02-18T05:37:18;1.20;;;1.10;;
8466;SDS011;4270;48.148;11.648;2023-02-18T05:39:43;1.13;;;1.03;;
8466;SDS011;4270;48.148;11.648;2023-02-18T05:42:09;1.50;;;1.30;;
8466;SDS011;4270;48.148;11.648;2023-02-18T05:44:34;1.30;;;1.20;;
8466;SDS011;4270;48.148;11.648;2023-02-18T05:47:01;0.90;;;0.90;;
8466;SDS011;4270;48.148;11.648;2023-02-18T05:49:27;1.83;;;0.80;;
8466;SDS011;4270;48.148;11.648;2023-02-18T05:51:52;1.03;;;0.90;;
8466;SDS011;4270;48.148;11.648;2023-02-18T05:54:18;1.70;;;1.20;;
8466;SDS011;4270;48.148;11.648;2023-02-18T05:56:43;1.37;;;1.00;;
8466;SDS011;4270;48.148;11.648;2023-02-18T05:59:08;1.00;;;0.90;;
8466;SDS011;4270;48.148;11.648;2023-02-18T06:01:33;0.80;;;0.80;;
8466;SDS011;4270;48.148;11.648;2023-02-18T06:03:58;1.50;;;0.77;;
8466;SDS011;4270;48.148;11.648;2023-02-18T06:06:24;1.17;;;0.87;;
8466;SDS011;4270;48.148;11.648;2023-02-18T06:08:49;0.80;;;0.60;;
8466;SDS011;4270;48.148;11.648;2023-02-18T06:11:14;1.13;;;0.80;;
8466;SDS011;4270;48.148;11.648;2023-02-18T06:13:39;1.77;;;0.70;;
8466;SDS011;4270;48.148;11.648;2023-02-18T06:16:05;1.57;;;1.00;;
8466;SDS011;4270;48.148;11.648;2023-02-18T06:18:30;0.67;;;0.67;;
8466;SDS011;4270;48.148;11.648;2023-02-18T06:20:55;0.50;;;0.50;;
8466;SDS011;4270;48.148;11.648;2023-02-18T06:23:20;0.77;;;0.63;;
8466;SDS011;4270;48.148;11.648;2023-02-18T06:25:47;0.80;;;0.50;;
8466;SDS011;4270;48.148;11.648;2023-02-18T06:28:12;0.80;;;0.57;;
8466;SDS011;4270;48.148;11.648;2023-02-18T06:30:38;0.87;;;0.70;;
8466;SDS011;4270;48.148;11.648;2023-02-18T06:33:03;2.77;;;0.87;;
8466;SDS011;4270;48.148;11.648;2023-02-18T06:35:28;0.70;;;0.53;;
8466;SDS011;4270;48.148;11.648;2023-02-18T06:37:54;0.60;;;0.50;;
8466;SDS011;4270;48.148;11.648;2023-02-18T06:40:19;0.70;;;0.60;;
8466;SDS011;4270;48.148;11.648;2023-02-18T06:42:44;3.00;;;0.80;;
8466;SDS011;4270;48.148;11.648;2023-02-18T06:45:09;1.70;;;0.60;;
8466;SDS011;4270;48.148;11.648;2023-02-18T06:47:35;1.07;;;0.60;;
8466;SDS011;4270;48.148;11.648;2023-02-18T06:50:00;0.60;;;0.60;;
8466;SDS011;4270;48.148;11.648;2023-02-18T06:52:25;0.73;;;0.73;;
8466;SDS011;4270;48.148;11.648;2023-02-18T06:54:50;0.70;;;0.60;;
8466;SDS011;4270;48.148;11.648;2023-02-18T06:57:16;1.47;;;0.90;;
8466;SDS011;4270;48.148;11.648;2023-02-18T06:59:41;1.27;;;0.77;;
8466;SDS011;4270;48.148;11.648;2023-02-18T07:02:06;1.17;;;0.70;;
8466;SDS011;4270;48.148;11.648;2023-02-18T07:04:31;2.93;;;1.17;;
8466;SDS011;4270;48.148;11.648;2023-02-18T07:06:57;1.67;;;0.77;;
8466;SDS011;4270;48.148;11.648;2023-02-18T07:09:22;0.70;;;0.60;;
8466;SDS011;4270;48.148;11.648;2023-02-18T07:11:47;1.67;;;0.93;;
8466;SDS011;4270;48.148;11.648;2023-02-18T07:14:12;0.87;;;0.87;;
8466;SDS011;4270;48.148;11.648;2023-02-18T07:16:37;1.03;;;0.60;;
8466;SDS011;4270;48.148;11.648;2023-02-18T07:19:03;1.00;;;0.77;;
8466;SDS011;4270;48.148;11.648;2023-02-18T07:21:28;0.80;;;0.60;;
8466;SDS011;4270;48.148;11.648;2023-02-18T07:23:53;0.53;;;0.53;;
8466;SDS011;4270;48.148;11.648;2023-02-18T07:26:18;1.17;;;0.40;;
8466;SDS011;4270;48.148;11.648;2023-02-18T07:28:44;0.93;;;0.60;;
8466;SDS011;4270;48.148;11.648;2023-02-18T07:31:09;1.00;;;0.70;;
8466;SDS011;4270;48.148;11.648;2023-02-18T07:33:34;0.80;;;0.50;;
8466;SDS011;4270;48.148;11.648;2023-02-18T07:36:00;0.70;;;0.60;;
8466;SDS011;4270;48.148;11.648;2023-02-18T07:38:26;0.70;;;0.50;;
8466;SDS011;4270;48.148;11.648;2023-02-18T07:40:51;0.60;;;0.57;;
8466;SDS011;4270;48.148;11.648;2023-02-18T07:43:17;1.23;;;0.60;;
8466;SDS011;4270;48.148;11.648;2023-02-18T07:45:42;1.43;;;0.40;;
8466;SDS011;4270;48.148;11.648;2023-02-18T07:48:07;0.53;;;0.53;;
8466;SDS011;4270;48.148;11.648;2023-02-18T07:50:33;2.70;;;0.60;;
8466;SDS011;4270;48.148;11.648;2023-02-18T07:53:00;0.50;;;0.50;;
8466;SDS011;4270;48.148;11.648;2023-02-18T07:55:26;0.67;;;0.50;;
8466;SDS011;4270;48.148;11.648;2023-02-18T07:58:13;2.40;;;0.40;;
8466;SDS011;4270;48.148;11.648;2023-02-18T08:00:38;0.90;;;0.53;;
8466;SDS011;4270;48.148;11.648;2023-02-18T08:03:04;0.80;;;0.70;;
8466;SDS011;4270;48.148;11.648;2023-02-18T08:05:29;1.10;;;0.50;;
8466;SDS011;4270;48.148;11.648;2023-02-18T08:07:55;0.60;;;0.60;;
8466;SDS011;4270;48.148;11.648;2023-02-18T08:10:20;1.03;;;0.50;;
8466;SDS011;4270;48.148;11.648;2023-02-18T08:12:45;1.23;;;0.60;;
8466;SDS011;4270;48.148;11.648;2023-02-18T08:15:10;0.70;;;0.70;;
8466;SDS011;4270;48.148;11.648;2023-02-18T08:17:36;0.70;;;0.70;;
8466;SDS011;4270;48.148;11.648;2023-02-18T08:20:01;1.57;;;0.60;;
8466;SDS011;4270;48.148;11.648;2023-02-18T08:22:26;0.97;;;0.70;;
8466;SDS011;4270;48.148;11.648;2023-02-18T08:24:53;1.20;;;0.70;;
8466;SDS011;4270;48.148;11.648;2023-02-18T08:27:18;0.50;;;0.50;;
8466;SDS011;4270;48.148;11.648;2023-02-18T08:29:43;1.00;;;0.63;;
8466;SDS011;4270;48.148;11.648;2023-02-18T08:32:09;1.10;;;0.67;;
8466;SDS011;4270;48.148;11.648;2023-02-18T08:34:34;0.60;;;0.60;;
8466;SDS011;4270;48.148;11.648;2023-02-18T08:37:00;1.03;;;0.67;;
8466;SDS011;4270;48.148;11.648;2023-02-18T08:39:25;1.33;;;0.60;;
8466;SDS011;4270;48.148;11.648;2023-02-18T08:41:51;1.07;;;0.53;;
8466;SDS011;4270;48.148;11.648;2023-02-18T08:44:16;0.50;;;0.50;;
8466;SDS011;4270;48.148;11.648;2023-02-18T08:46:41;0.50;;;0.50;;
8466;SDS011;4270;48.148;11.648;2023-02-18T08:49:06;1.10;;;0.80;;
8466;SDS011;4270;48.148;11.648;2023-02-18T08:51:32;0.70;;;0.70;;
8466;SDS011;4270;48.148;11.648;2023-02-18T08:53:57;0.50;;;0.50;;
8466;SDS011;4270;48.148;11.648;2023-02-18T08:56:22;0.67;;;0.60;;
8466;SDS011;4270;48.148;11.648;2023-02-18T08:58:48;1.77;;;0.83;;
8466;SDS011;4270;48.148;11.648;2023-02-18T09:01:13;0.93;;;0.83;;
8466;SDS011;4270;48.148;11.648;2023-02-18T09:03:38;1.10;;;1.00;;
8466;SDS011;4270;48.148;11.648;2023-02-18T09:06:04;2.20;;;0.70;;
8466;SDS011;4270;48.148;11.648;2023-02-18T09:08:29;0.90;;;0.70;;
8466;SDS011;4270;48.148;11.648;2023-02-18T09:10:56;1.60;;;0.90;;
8466;SDS011;4270;48.148;11.648;2023-02-18T09:13:21;1.87;;;0.70;;
8466;SDS011;4270;48.148;11.648;2023-02-18T09:15:54;1.00;;;0.77;;
8466;SDS011;4270;48.148;11.648;2023-02-18T09:18:19;1.90;;;0.90;;
8466;SDS011;4270;48.148;11.648;2023-02-18T09:20:45;1.93;;;0.90;;
8466;SDS011;4270;48.148;11.648;2023-02-18T09:23:10;1.47;;;0.70;;
8466;SDS011;4270;48.148;11.648;2023-02-18T09:25:38;1.37;;;0.90;;
8466;SDS011;4270;48.148;11.648;2023-02-18T09:28:03;1.97;;;1.33;;
8466;SDS011;4270;48.148;11.648;2023-02-18T09:30:28;1.00;;;0.70;;
8466;SDS011;4270;48.148;11.648;2023-02-18T09:32:53;1.17;;;0.90;;
8466;SDS011;4270;48.148;11.648;2023-02-18T09:35:18;1.57;;;1.03;;
8466;SDS011;4270;48.148;11.648;2023-02-18T09:37:44;1.33;;;0.90;;
8466;SDS011;4270;48.148;11.648;2023-02-18T09:40:12;1.60;;;0.80;;
8466;SDS011;4270;48.148;11.648;2023-02-18T09:42:45;1.27;;;0.90;;
8466;SDS011;4270;48.148;11.648;2023-02-18T09:45:10;0.90;;;0.70;;
8466;SDS011;4270;48.148;11.648;2023-02-18T09:47:38;1.20;;;0.80;;
8466;SDS011;4270;48.148;11.648;2023-02-18T09:52:33;0.70;;;0.70;;
8466;SDS011;4270;48.148;11.648;2023-02-18T09:55:00;2.00;;;1.50;;
8466;SDS011;4270;48.148;11.648;2023-02-18T09:57:32;1.10;;;1.00;;
8466;SDS011;4270;48.148;11.648;2023-02-18T10:00:04;2.40;;;1.00;;
8466;SDS011;4270;48.148;11.648;2023-02-18T10:02:30;3.97;;;1.17;;
8466;SDS011;4270;48.148;11.648;2023-02-18T10:04:55;2.37;;;0.97;;
8466;SDS011;4270;48.148;11.648;2023-02-18T10:07:31;1.70;;;1.10;;
8466;SDS011;4270;48.148;11.648;2023-02-18T10:09:56;1.50;;;0.87;;
8466;SDS011;4270;48.148;11.648;2023-02-18T10:12:24;1.30;;;0.83;;
8466;SDS011;4270;48.148;11.648;2023-02-18T10:14:53;3.70;;;1.10;;
8466;SDS011;4270;48.148;11.648;2023-02-18T10:17:19;0.80;;;0.80;;
8466;SDS011;4270;48.148;11.648;2023-02-18T10:19:45;0.80;;;0.80;;
8466;SDS011;4270;48.148;11.648;2023-02-18T10:22:12;1.13;;;0.90;;
8466;SDS011;4270;48.148;11.648;2023-02-18T10:24:39;2.73;;;1.07;;
8466;SDS011;4270;48.148;11.648;2023-02-18T10:27:06;1.67;;;0.80;;
8466;SDS011;4270;48.148;11.648;2023-02-18T10:29:31;0.80;;;0.80;;
8466;SDS011;4270;48.148;11.648;2023-02-18T10:32:05;3.73;;;1.80;;
8466;SDS011;4270;48.148;11.648;2023-02-18T10:37:01;1.47;;;0.87;;
8466;SDS011;4270;48.148;11.648;2023-02-18T10:47:21;3.03;;;0.93;;
8466;SDS011;4270;48.148;11.648;2023-02-18T10:52:20;1.30;;;1.00;;
8466;SDS011;4270;48.148;11.648;2023-02-18T10:54:50;1.77;;;0.90;;
8466;SDS011;4270;48.148;11.648;2023-02-18T10:57:17;1.07;;;0.90;;
8466;SDS011;4270;48.148;11.648;2023-02-18T10:59:45;1.73;;;1.10;;
8466;SDS011;4270;48.148;11.648;2023-02-18T11:02:18;2.70;;;0.90;;
8466;SDS011;4270;48.148;11.648;2023-02-18T11:04:44;0.90;;;0.73;;
8466;SDS011;4270;48.148;11.648;2023-02-18T11:07:20;3.23;;;1.10;;
8466;SDS011;4270;48.148;11.648;2023-02-18T11:12:16;1.10;;;1.00;;
8466;SDS011;4270;48.148;11.648;2023-02-18T11:14:45;2.47;;;1.40;;
8466;SDS011;4270;48.148;11.648;2023-02-18T11:17:21;3.67;;;1.10;;
8466;SDS011;4270;48.148;11.648;2023-02-18T11:19:56;1.30;;;1.00;;
8466;SDS011;4270;48.148;11.648;2023-02-18T11:22:23;3.27;;;0.97;;
8466;SDS011;4270;48.148;11.648;2023-02-18T11:24:52;1.43;;;0.80;;
8466;SDS011;4270;48.148;11.648;2023-02-18T11:27:20;1.53;;;0.70;;
8466;SDS011;4270;48.148;11.648;2023-02-18T11:29:48;0.80;;;0.80;;
8466;SDS011;4270;48.148;11.648;2023-02-18T11:32:14;1.57;;;1.10;;
8466;SDS011;4270;48.148;11.648;2023-02-18T11:34:40;1.00;;;0.80;;
8466;SDS011;4270;48.148;11.648;2023-02-18T11:37:17;1.40;;;1.13;;
8466;SDS011;4270;48.148;11.648;2023-02-18T11:39:43;1.33;;;1.00;;
8466;SDS011;4270;48.148;11.648;2023-02-18T11:42:11;1.50;;;0.80;;
8466;SDS011;4270;48.148;11.648;2023-02-18T11:44:39;2.43;;;0.80;;
8466;SDS011;4270;48.148;11.648;2023-02-18T11:47:16;1.10;;;1.00;;
8466;SDS011;4270;48.148;11.648;2023-02-18T11:49:44;2.10;;;0.87;;
8466;SDS011;4270;48.148;11.648;2023-02-18T11:52:26;0.90;;;0.90;;
8466;SDS011;4270;48.148;11.648;2023-02-18T11:57:37;1.07;;;0.80;;
8466;SDS011;4270;48.148;11.648;2023-02-18T12:00:05;2.07;;;0.87;;
8466;SDS011;4270;48.148;11.648;2023-02-18T12:02:39;0.80;;;0.77;;
8466;SDS011;4270;48.148;11.648;2023-02-18T12:05:25;1.00;;;0.60;;
8466;SDS011;4270;48.148;11.648;2023-02-18T12:08:06;2.20;;;0.70;;
8466;SDS011;4270;48.148;11.648;2023-02-18T12:16:09;0.80;;;0.80;;
8466;SDS011;4270;48.148;11.648;2023-02-18T12:23:08;0.67;;;0.57;;
8466;SDS011;4270;48.148;11.648;2023-02-18T12:36:03;1.50;;;1.40;;
8466;SDS011;4270;48.148;11.648;2023-02-18T12:38:52;2.43;;;1.80;;
8466;SDS011;4270;48.148;11.648;2023-02-18T12:43:51;3.30;;;3.00;;
8466;SDS011;4270;48.148;11.648;2023-02-18T12:51:35;3.47;;;3.17;;
8466;SDS011;4270;48.148;11.648;2023-02-18T12:56:49;2.10;;;1.00;;
8466;SDS011;4270;48.148;11.648;2023-02-18T13:04:14;1.00;;;0.90;;
8466;SDS011;4270;48.148;11.648;2023-02-18T13:07:05;0.80;;;0.67;;
8466;SDS011;4270;48.148;11.648;2023-02-18T13:15:19;2.30;;;0.80;;
8466;SDS011;4270;48.148;11.648;2023-02-18T13:17:21;1.53;;;1.27;;
8466;SDS011;4270;48.148;11.648;2023-02-18T13:22:17;0.97;;;0.87;;
8466;SDS011;4270;48.148;11.648;2023-02-18T13:24:53;1.53;;;1.00;;
8466;SDS011;4270;48.148;11.648;2023-02-18T13:30:30;1.93;;;1.20;;
8466;SDS011;4270;48.148;11.648;2023-02-18T13:32:37;1.40;;;1.07;;
8466;SDS011;4270;48.148;11.648;2023-02-18T13:35:24;1.00;;;0.90;;
8466;SDS011;4270;48.148;11.648;2023-02-18T13:40:27;1.67;;;1.10;;
8466;SDS011;4270;48.148;11.648;2023-02-18T13:42:54;1.03;;;0.70;;
8466;SDS011;4270;48.148;11.648;2023-02-18T13:45:39;1.73;;;0.80;;
8466;SDS011;4270;48.148;11.648;2023-02-18T13:48:05;0.83;;;0.73;;
8466;SDS011;4270;48.148;11.648;2023-02-18T13:50:45;2.30;;;0.80;;
8466;SDS011;4270;48.148;11.648;2023-02-18T13:53:12;3.80;;;0.80;;
8466;SDS011;4270;48.148;11.648;2023-02-18T13:58:03;0.88;;;0.85;;
8466;SDS011;4270;48.148;11.648;2023-02-18T14:00:35;0.80;;;0.80;;
8466;SDS011;4270;48.148;11.648;2023-02-18T14:03:18;2.30;;;1.07;;
8466;SDS011;4270;48.148;11.648;2023-02-18T14:05:43;0.90;;;0.80;;
8466;SDS011;4270;48.148;11.648;2023-02-18T14:08:12;1.37;;;0.90;;
8466;SDS011;4270;48.148;11.648;2023-02-18T14:10:38;0.90;;;0.63;;
8466;SDS011;4270;48.148;11.648;2023-02-18T14:25:38;1.90;;;1.23;;
8466;SDS011;4270;48.148;11.648;2023-02-18T14:30:49;1.30;;;0.63;;
8466;SDS011;4270;48.148;11.648;2023-02-18T14:33:15;0.70;;;0.70;;
8466;SDS011;4270;48.148;11.648;2023-02-18T14:35:47;1.13;;;1.03;;
8466;SDS011;4270;48.148;11.648;2023-02-18T14:50:53;2.08;;;1.45;;
8466;SDS011;4270;48.148;11.648;2023-02-18T14:53:21;3.40;;;0.70;;
8466;SDS011;4270;48.148;11.648;2023-02-18T14:55:52;1.03;;;0.93;;
8466;SDS011;4270;48.148;11.648;2023-02-18T15:00:46;0.80;;;0.73;;
8466;SDS011;4270;48.148;11.648;2023-02-18T15:03:12;1.03;;;0.90;;
8466;SDS011;4270;48.148;11.648;2023-02-18T15:05:38;1.33;;;0.90;;
8466;SDS011;4270;48.148;11.648;2023-02-18T15:08:05;1.53;;;1.00;;
8466;SDS011;4270;48.148;11.648;2023-02-18T15:10:36;1.97;;;1.00;;
8466;SDS011;4270;48.148;11.648;2023-02-18T15:13:02;1.70;;;1.00;;
8466;SDS011;4270;48.148;11.648;2023-02-18T15:15:29;1.87;;;0.80;;
8466;SDS011;4270;48.148;11.648;2023-02-18T15:17:56;1.10;;;1.00;;
8466;SDS011;4270;48.148;11.648;2023-02-18T15:20:21;1.03;;;0.80;;
8466;SDS011;4270;48.148;11.648;2023-02-18T15:22:47;0.90;;;0.80;;
8466;SDS011;4270;48.148;11.648;2023-02-18T15:25:12;1.60;;;1.10;;
8466;SDS011;4270;48.148;11.648;2023-02-18T15:27:38;4.53;;;0.90;;
8466;SDS011;4270;48.148;11.648;2023-02-18T15:32:49;1.07;;;0.90;;
8466;SDS011;4270;48.148;11.648;2023-02-18T15:35:16;1.53;;;0.80;;
8466;SDS011;4270;48.148;11.648;2023-02-18T15:37:45;7.10;;;1.00;;
8466;SDS011;4270;48.148;11.648;2023-02-18T15:40:14;0.97;;;0.80;;
8466;SDS011;4270;48.148;11.648;2023-02-18T15:42:39;0.80;;;0.73;;
8466;SDS011;4270;48.148;11.648;2023-02-18T15:45:20;1.97;;;0.90;;
8466;SDS011;4270;48.148;11.648;2023-02-18T15:47:46;1.03;;;0.70;;
8466;SDS011;4270;48.148;11.648;2023-02-18T15:50:32;0.97;;;0.70;;
8466;SDS011;4270;48.148;11.648;2023-02-18T15:52:58;1.23;;;0.73;;
8466;SDS011;4270;48.148;11.648;2023-02-18T15:55:31;1.50;;;0.90;;
8466;SDS011;4270;48.148;11.648;2023-02-18T15:58:04;1.63;;;0.90;;
8466;SDS011;4270;48.148;11.648;2023-02-18T16:00:38;1.80;;;1.00;;
8466;SDS011;4270;48.148;11.648;2023-02-18T16:03:16;1.40;;;0.80;;
8466;SDS011;4270;48.148;11.648;2023-02-18T16:05:43;2.10;;;1.30;;
8466;SDS011;4270;48.148;11.648;2023-02-18T16:08:25;1.70;;;1.23;;
8466;SDS011;4270;48.148;11.648;2023-02-18T16:13:19;3.30;;;1.07;;
8466;SDS011;4270;48.148;11.648;2023-02-18T16:15:46;1.50;;;1.10;;
8466;SDS011;4270;48.148;11.648;2023-02-18T16:18:20;1.57;;;1.20;;
8466;SDS011;4270;48.148;11.648;2023-02-18T16:20:52;1.80;;;0.93;;
8466;SDS011;4270;48.148;11.648;2023-02-18T16:23:24;1.10;;;1.00;;
8466;SDS011;4270;48.148;11.648;2023-02-18T16:25:49;2.10;;;1.20;;
8466;SDS011;4270;48.148;11.648;2023-02-18T16:28:16;2.83;;;0.60;;
8466;SDS011;4270;48.148;11.648;2023-02-18T16:30:41;3.87;;;0.90;;
8466;SDS011;4270;48.148;11.648;2023-02-18T16:33:07;1.20;;;0.90;;
8466;SDS011;4270;48.148;11.648;2023-02-18T16:35:33;1.80;;;1.50;;
8466;SDS011;4270;48.148;11.648;2023-02-18T16:37:58;1.40;;;0.73;;
8466;SDS011;4270;48.148;11.648;2023-02-18T16:42:52;1.10;;;0.73;;
8466;SDS011;4270;48.148;11.648;2023-02-18T16:45:18;1.67;;;0.80;;
8466;SDS011;4270;48.148;11.648;2023-02-18T16:47:44;0.90;;;0.80;;
8466;SDS011;4270;48.148;11.648;2023-02-18T16:50:17;4.50;;;1.17;;
8466;SDS011;4270;48.148;11.648;2023-02-18T16:52:43;1.10;;;0.80;;
8466;SDS011;4270;48.148;11.648;2023-02-18T16:55:15;0.90;;;0.80;;
8466;SDS011;4270;48.148;11.648;2023-02-18T16:57:40;2.20;;;1.00;;
8466;SDS011;4270;48.148;11.648;2023-02-18T17:00:06;1.20;;;0.90;;
8466;SDS011;4270;48.148;11.648;2023-02-18T17:02:31;1.63;;;0.90;;
8466;SDS011;4270;48.148;11.648;2023-02-18T17:04:56;1.60;;;1.10;;
8466;SDS011;4270;48.148;11.648;2023-02-18T17:07:23;0.87;;;0.73;;
8466;SDS011;4270;48.148;11.648;2023-02-18T17:09:48;1.27;;;1.10;;
8466;SDS011;4270;48.148;11.648;2023-02-18T17:12:13;2.10;;;1.10;;
8466;SDS011;4270;48.148;11.648;2023-02-18T17:14:38;0.80;;;0.80;;
8466;SDS011;4270;48.148;11.648;2023-02-18T17:17:04;1.90;;;0.97;;
8466;SDS011;4270;48.148;11.648;2023-02-18T17:19:30;1.03;;;0.90;;
8466;SDS011;4270;48.148;11.648;2023-02-18T17:21:55;2.67;;;1.07;;
8466;SDS011;4270;48.148;11.648;2023-02-18T17:24:20;1.13;;;0.83;;
8466;SDS011;4270;48.148;11.648;2023-02-18T17:26:45;1.97;;;1.07;;
8466;SDS011;4270;48.148;11.648;2023-02-18T17:29:10;1.50;;;1.20;;
8466;SDS011;4270;48.148;11.648;2023-02-18T17:31:37;0.80;;;0.70;;
8466;SDS011;4270;48.148;11.648;2023-02-18T17:34:07;2.07;;;1.07;;
8466;SDS011;4270;48.148;11.648;2023-02-18T17:36:33;1.87;;;1.00;;
8466;SDS011;4270;48.148;11.648;2023-02-18T17:38:58;1.20;;;0.80;;
8466;SDS011;4270;48.148;11.648;2023-02-18T17:41:23;0.80;;;0.70;;
8466;SDS011;4270;48.148;11.648;2023-02-18T17:43:48;1.03;;;0.93;;
8466;SDS011;4270;48.148;11.648;2023-02-18T17:46:14;1.33;;;0.90;;
8466;SDS011;4270;48.148;11.648;2023-02-18T17:48:40;2.60;;;1.10;;